createdAt,value
2019-03-08T00:00:04.118Z,96854.84
2019-03-08T00:02:30.770Z,96849.92
2019-03-08T00:04:57.303Z,96853.33
2019-03-08T00:07:23.818Z,96856.78
2019-03-08T00:09:50.653Z,96854.87
2019-03-08T00:12:17.300Z,96852.39
2019-03-08T00:14:43.965Z,96860.66
2019-03-08T00:17:10.597Z,96864.39
2019-03-08T00:19:37.239Z,96868.22
2019-03-08T00:22:06.162Z,96862.91
2019-03-08T00:24:32.839Z,96858.36
2019-03-08T00:26:59.765Z,96856.78
2019-03-08T00:29:26.280Z,96859.22
2019-03-08T00:31:52.905Z,96865.43
2019-03-08T00:34:19.440Z,96853.91
2019-03-08T00:36:46.063Z,96856.86
2019-03-08T00:39:12.698Z,96855.86
2019-03-08T00:41:39.318Z,96852.69
2019-03-08T00:44:06.262Z,96852.98
2019-03-08T00:46:32.886Z,96858.38
2019-03-08T00:48:59.539Z,96859.20
2019-03-08T00:51:26.075Z,96853.07
2019-03-08T00:53:52.799Z,96855.22
2019-03-08T00:56:19.329Z,96856.03
2019-03-08T00:58:45.959Z,96853.92
2019-03-08T01:01:12.590Z,96843.16
2019-03-08T01:03:39.237Z,96855.02
2019-03-08T01:06:05.869Z,96849.09
2019-03-08T01:08:32.403Z,96851.00
2019-03-08T01:10:58.934Z,96849.09
2019-03-08T01:13:25.590Z,96845.31
2019-03-08T01:15:52.262Z,96838.91
2019-03-08T01:18:18.883Z,96843.45
2019-03-08T01:20:45.825Z,96838.62
2019-03-08T01:23:12.482Z,96841.02
2019-03-08T01:25:39.121Z,96835.94
2019-03-08T01:28:07.992Z,96832.45
2019-03-08T01:30:35.214Z,96840.24
2019-03-08T01:33:01.848Z,96837.81
2019-03-08T01:35:28.471Z,96854.70
2019-03-08T01:37:55.109Z,96860.34
2019-03-08T01:40:21.928Z,96858.72
2019-03-08T01:42:48.556Z,96872.40
2019-03-08T01:45:15.320Z,96874.30
2019-03-08T01:47:41.944Z,96874.55
2019-03-08T01:50:08.784Z,96877.27
2019-03-08T01:52:35.317Z,96874.88
2019-03-08T01:55:02.285Z,96874.92
2019-03-08T01:57:28.952Z,96868.59
2019-03-08T01:59:55.571Z,96870.55
2019-03-08T02:02:31.129Z,96866.80
2019-03-08T02:04:57.897Z,96863.03
2019-03-08T02:07:24.616Z,96855.80
2019-03-08T02:09:51.658Z,96860.91
2019-03-08T02:12:18.294Z,96860.91
2019-03-08T02:14:44.948Z,96864.94
2019-03-08T02:17:11.599Z,96866.27
2019-03-08T02:19:38.220Z,96859.48
2019-03-08T02:22:04.984Z,96860.79
2019-03-08T02:24:31.519Z,96868.05
2019-03-08T02:26:58.444Z,96868.09
2019-03-08T02:29:24.955Z,96871.27
2019-03-08T02:31:51.584Z,96876.95
2019-03-08T02:34:18.311Z,96868.87
2019-03-08T02:36:44.840Z,96863.47
2019-03-08T02:39:11.497Z,96857.86
2019-03-08T02:41:38.120Z,96871.23
2019-03-08T02:44:05.254Z,96854.25
2019-03-08T02:46:31.880Z,96858.47
2019-03-08T02:48:58.515Z,96858.43
2019-03-08T02:51:25.038Z,96856.48
2019-03-08T02:53:51.731Z,96859.72
2019-03-08T02:56:18.374Z,96861.59
2019-03-08T02:58:44.896Z,96850.92
2019-03-08T03:01:11.839Z,96853.03
2019-03-08T03:03:38.458Z,96849.73
2019-03-08T03:06:05.233Z,96855.86
2019-03-08T03:08:31.887Z,96857.97
2019-03-08T03:10:58.616Z,96861.94
2019-03-08T03:13:25.233Z,96864.48
2019-03-08T03:15:52.002Z,96861.52
2019-03-08T03:18:18.825Z,96871.95
2019-03-08T03:20:45.387Z,96874.19
2019-03-08T03:23:11.914Z,96867.19
2019-03-08T03:25:38.442Z,96870.97
2019-03-08T03:28:04.966Z,96869.80
2019-03-08T03:30:31.495Z,96877.27
2019-03-08T03:32:58.361Z,96875.28
2019-03-08T03:35:25.086Z,96879.63
2019-03-08T03:37:51.899Z,96878.30
2019-03-08T03:40:18.647Z,96877.28
2019-03-08T03:42:45.424Z,96873.98
2019-03-08T03:45:12.182Z,96875.19
2019-03-08T03:47:38.816Z,96878.57
2019-03-08T03:50:06.689Z,96873.80
2019-03-08T03:52:33.218Z,96872.34
2019-03-08T03:54:59.963Z,96864.80
2019-03-08T03:57:26.498Z,96864.06
2019-03-08T03:59:53.058Z,96867.42
2019-03-08T04:02:19.717Z,96866.69
2019-03-08T04:04:46.351Z,96874.59
2019-03-08T04:07:12.992Z,96871.37
2019-03-08T04:09:39.754Z,96873.59
2019-03-08T04:12:06.444Z,96877.33
2019-03-08T04:14:33.095Z,96879.50
2019-03-08T04:16:59.699Z,96880.39
2019-03-08T04:19:26.322Z,96876.58
2019-03-08T04:21:52.977Z,96889.55
2019-03-08T04:24:19.524Z,96889.27
2019-03-08T04:26:46.148Z,96890.86
2019-03-08T04:29:12.782Z,96889.23
2019-03-08T04:31:39.418Z,96891.92
2019-03-08T04:34:06.142Z,96891.65
2019-03-08T04:36:32.671Z,96897.77
2019-03-08T04:38:59.417Z,96904.94
2019-03-08T04:41:26.134Z,96914.67
2019-03-08T04:43:52.987Z,96917.39
2019-03-08T04:46:20.047Z,96917.92
2019-03-08T04:48:46.784Z,96919.27
2019-03-08T04:51:13.517Z,96914.93
2019-03-08T04:53:41.222Z,96914.09
2019-03-08T04:56:08.189Z,96917.89
2019-03-08T04:58:34.832Z,96920.16
2019-03-08T05:01:01.526Z,96920.94
2019-03-08T05:03:28.383Z,96920.94
2019-03-08T05:05:55.023Z,96919.02
2019-03-08T05:08:21.746Z,96929.00
2019-03-08T05:10:48.278Z,96931.16
2019-03-08T05:13:14.943Z,96947.01
2019-03-08T05:15:41.577Z,96942.22
2019-03-08T05:18:08.279Z,96943.53
2019-03-08T05:20:34.892Z,96943.84
2019-03-08T05:23:01.579Z,96949.77
2019-03-08T05:25:28.342Z,96947.05
2019-03-08T05:27:55.104Z,96955.68
2019-03-08T05:30:21.832Z,96956.19
2019-03-08T05:32:48.466Z,96958.09
2019-03-08T05:35:15.122Z,96958.88
2019-03-08T05:37:41.853Z,96958.09
2019-03-08T05:40:09.003Z,96958.37
2019-03-08T05:42:35.774Z,96960.85
2019-03-08T05:45:02.485Z,96966.59
2019-03-08T05:47:29.016Z,96965.24
2019-03-08T05:49:55.544Z,96976.84
2019-03-08T05:52:22.259Z,96973.89
2019-03-08T05:54:48.904Z,96974.16
2019-03-08T05:57:15.752Z,96980.38
2019-03-08T05:59:42.380Z,96984.74
2019-03-08T06:02:09.096Z,96982.36
2019-03-08T06:04:35.645Z,96985.88
2019-03-08T06:07:02.557Z,96993.73
2019-03-08T06:09:29.212Z,96992.94
2019-03-08T06:11:55.772Z,96997.05
2019-03-08T06:14:22.314Z,97006.00
2019-03-08T06:16:48.955Z,97009.25
2019-03-08T06:19:15.480Z,97003.08
2019-03-08T06:21:42.031Z,97004.75
2019-03-08T06:24:08.801Z,97002.37
2019-03-08T06:26:35.444Z,97005.41
2019-03-08T06:29:01.991Z,97013.52
2019-03-08T06:31:28.515Z,97014.59
2019-03-08T06:33:55.192Z,97017.56
2019-03-08T06:36:21.827Z,97023.51
2019-03-08T06:38:48.362Z,97024.08
2019-03-08T06:41:15.013Z,97029.78
2019-03-08T06:43:41.566Z,97031.71
2019-03-08T06:46:08.226Z,97030.95
2019-03-08T06:48:34.965Z,97035.05
2019-03-08T06:51:01.534Z,97036.98
2019-03-08T06:53:28.472Z,97042.40
2019-03-08T06:55:55.163Z,97042.70
2019-03-08T06:58:31.607Z,97040.30
2019-03-08T07:01:10.002Z,97054.31
2019-03-08T07:03:36.564Z,97057.30
2019-03-08T07:06:03.625Z,97064.06
2019-03-08T07:08:30.196Z,97070.55
2019-03-08T07:10:56.821Z,97081.09
2019-03-08T07:13:23.552Z,97077.87
2019-03-08T07:15:50.098Z,97087.88
2019-03-08T07:18:16.749Z,97093.02
2019-03-08T07:20:48.575Z,97096.81
2019-03-08T07:23:27.671Z,97103.06
2019-03-08T07:26:07.834Z,97103.08
2019-03-08T07:28:44.531Z,97114.17
2019-03-08T07:31:23.883Z,97113.35
2019-03-08T07:34:11.117Z,97110.95
2019-03-08T07:36:54.505Z,97115.80
2019-03-08T07:39:52.799Z,97120.14
2019-03-08T07:42:37.664Z,97140.41
2019-03-08T07:45:17.880Z,97133.64
2019-03-08T07:48:04.170Z,97139.59
2019-03-08T07:50:57.115Z,97146.62
2019-03-08T07:53:58.635Z,97151.93
2019-03-08T07:56:33.176Z,97159.70
2019-03-08T07:59:19.370Z,97146.94
2019-03-08T08:02:11.678Z,97152.62
2019-03-08T08:04:47.655Z,97152.08
2019-03-08T08:07:20.861Z,97164.26
2019-03-08T08:10:05.645Z,97179.98
2019-03-08T08:12:51.828Z,97179.96
2019-03-08T08:15:40.818Z,97184.83
2019-03-08T08:18:30.157Z,97201.00
2019-03-08T08:21:10.116Z,97218.07
2019-03-08T08:24:11.685Z,97222.61
2019-03-08T08:27:00.746Z,97218.23
2019-03-08T08:29:47.476Z,97227.31
2019-03-08T08:32:36.454Z,97238.10
2019-03-08T08:35:11.129Z,97241.30
2019-03-08T08:37:51.289Z,97240.52
2019-03-08T08:40:42.718Z,97242.64
2019-03-08T08:43:15.289Z,97237.61
2019-03-08T08:45:50.833Z,97245.90
2019-03-08T08:48:26.994Z,97234.89
2019-03-08T08:51:03.724Z,97244.97
2019-03-08T08:53:36.453Z,97243.73
2019-03-08T08:56:21.551Z,97237.78
2019-03-08T08:59:16.604Z,97244.17
2019-03-08T09:02:01.895Z,97237.36
2019-03-08T09:04:46.681Z,97242.20
2019-03-08T09:07:45.440Z,97232.55
2019-03-08T09:10:24.964Z,97225.01
2019-03-08T09:12:59.989Z,97231.59
2019-03-08T09:15:44.337Z,97234.89
2019-03-08T09:18:29.862Z,97236.17
2019-03-08T09:21:22.542Z,97243.09
2019-03-08T09:23:58.998Z,97251.29
2019-03-08T09:26:48.141Z,97260.20
2019-03-08T09:29:24.839Z,97260.29
2019-03-08T09:32:06.022Z,97267.77
2019-03-08T09:35:01.868Z,97282.66
2019-03-08T09:37:44.231Z,97282.92
2019-03-08T09:40:33.307Z,97284.81
2019-03-08T09:43:18.857Z,97293.27
2019-03-08T09:46:13.849Z,97288.34
2019-03-08T09:49:02.556Z,97292.36
2019-03-08T09:51:47.763Z,97299.97
2019-03-08T09:54:46.275Z,97307.88
2019-03-08T09:57:31.720Z,97312.24
2019-03-08T10:00:07.359Z,97314.39
2019-03-08T10:02:45.996Z,97327.80
2019-03-08T10:05:35.337Z,97321.16
2019-03-08T10:08:24.583Z,97316.95
2019-03-08T10:11:09.169Z,97322.09
2019-03-08T10:13:44.783Z,97322.59
2019-03-08T10:16:16.569Z,97328.82
2019-03-08T10:19:15.310Z,97313.16
2019-03-08T10:22:08.173Z,97322.66
2019-03-08T10:24:57.371Z,97329.25
2019-03-08T10:27:49.752Z,97327.28
2019-03-08T10:30:33.899Z,97315.84
2019-03-08T10:33:32.796Z,97334.51
2019-03-08T10:36:17.480Z,97320.36
2019-03-08T10:39:02.536Z,97331.48
2019-03-08T10:42:01.455Z,97323.63
2019-03-08T10:44:34.942Z,97323.91
2019-03-08T10:47:38.195Z,97319.67
2019-03-08T10:50:25.537Z,97319.30
2019-03-08T10:53:22.906Z,97330.63
2019-03-08T10:56:06.316Z,97333.82
2019-03-08T10:59:01.381Z,97337.06
2019-03-08T11:01:35.262Z,97341.52
2019-03-08T11:04:18.185Z,97345.25
2019-03-08T11:07:04.007Z,97345.27
2019-03-08T11:10:13.753Z,97352.36
2019-03-08T11:13:13.462Z,97357.73
2019-03-08T11:15:52.017Z,97362.70
2019-03-08T11:18:29.017Z,97348.98
2019-03-08T11:21:31.307Z,97350.08
2019-03-08T11:24:26.800Z,97338.91
2019-03-08T11:27:24.820Z,97331.35
2019-03-08T11:30:02.759Z,97342.77
2019-03-08T11:32:59.467Z,97353.85
2019-03-08T11:35:32.514Z,97353.33
2019-03-08T11:38:19.887Z,97344.09
2019-03-08T11:40:58.143Z,97342.42
2019-03-08T11:43:34.224Z,97345.54
2019-03-08T11:46:16.704Z,97348.59
2019-03-08T11:49:08.546Z,97353.80
2019-03-08T11:52:07.918Z,97342.16
2019-03-08T11:54:53.419Z,97348.22
2019-03-08T11:57:40.205Z,97343.02
2019-03-08T12:00:28.893Z,97351.00
2019-03-08T12:03:16.243Z,97350.09
2019-03-08T12:06:01.483Z,97359.26
2019-03-08T12:08:51.832Z,97342.77
2019-03-08T12:11:27.981Z,97350.44
2019-03-08T12:14:12.257Z,97348.17
2019-03-08T12:17:04.900Z,97344.75
2019-03-08T12:19:39.928Z,97356.19
2019-03-08T12:22:15.907Z,97345.07
2019-03-08T12:24:51.965Z,97354.14
2019-03-08T12:27:26.509Z,97364.08
2019-03-08T12:30:13.081Z,97365.09
2019-03-08T12:32:51.337Z,97355.46
2019-03-08T12:35:35.984Z,97348.78
2019-03-08T12:38:44.832Z,97352.46
2019-03-08T12:41:28.750Z,97351.23
2019-03-08T12:44:18.896Z,97354.33
2019-03-08T12:47:07.749Z,97352.30
2019-03-08T12:50:04.533Z,97338.12
2019-03-08T12:52:53.874Z,97332.98
2019-03-08T12:55:36.493Z,97336.12
2019-03-08T12:58:21.872Z,97338.63
2019-03-08T13:01:13.139Z,97337.70
2019-03-08T13:04:03.751Z,97356.23
2019-03-08T13:06:39.867Z,97355.61
2019-03-08T13:09:29.115Z,97348.99
2019-03-08T13:12:01.572Z,97339.62
2019-03-08T13:14:28.299Z,97345.72
2019-03-08T13:16:55.192Z,97344.41
2019-03-08T13:19:21.977Z,97349.10
2019-03-08T13:21:49.054Z,97346.23
2019-03-08T13:24:16.008Z,97348.41
2019-03-08T13:26:42.789Z,97360.33
2019-03-08T13:29:09.594Z,97364.03
2019-03-08T13:31:42.180Z,97355.41
2019-03-08T13:34:09.129Z,97360.88
2019-03-08T13:36:44.451Z,97353.33
2019-03-08T13:39:11.922Z,97349.02
2019-03-08T13:41:38.597Z,97353.20
2019-03-08T13:44:09.170Z,97346.20
2019-03-08T13:46:37.608Z,97346.50
2019-03-08T13:49:07.225Z,97352.27
2019-03-08T13:51:34.147Z,97365.28
2019-03-08T13:54:01.072Z,97349.08
2019-03-08T13:56:27.606Z,97359.57
2019-03-08T13:58:54.256Z,97351.44
2019-03-08T14:01:22.466Z,97354.73
2019-03-08T14:03:49.116Z,97351.97
2019-03-08T14:06:15.873Z,97346.77
2019-03-08T14:08:42.703Z,97350.77
2019-03-08T14:11:09.468Z,97341.31
2019-03-08T14:13:36.101Z,97349.58
2019-03-08T14:16:02.743Z,97342.64
2019-03-08T14:18:29.468Z,97345.57
2019-03-08T14:20:56.113Z,97342.80
2019-03-08T14:23:22.753Z,97342.98
2019-03-08T14:25:49.777Z,97350.08
2019-03-08T14:28:16.417Z,97381.06
2019-03-08T14:31:02.746Z,97420.77
2019-03-08T14:33:29.294Z,97406.31
2019-03-08T14:35:55.931Z,97408.11
2019-03-08T14:38:22.959Z,97404.95
2019-03-08T14:40:57.517Z,97383.56
2019-03-08T14:43:28.418Z,97378.11
2019-03-08T14:46:00.030Z,97384.97
2019-03-08T14:48:26.577Z,97381.84
2019-03-08T14:50:53.108Z,97378.70
2019-03-08T14:53:19.725Z,97378.23
2019-03-08T14:55:46.287Z,97383.50
2019-03-08T14:58:14.917Z,97385.55
2019-03-08T15:00:41.547Z,97378.00
2019-03-08T15:03:10.783Z,97375.67
2019-03-08T15:05:37.641Z,97379.66
2019-03-08T15:08:04.355Z,97377.56
2019-03-08T15:10:39.124Z,97377.72
2019-03-08T15:12:59.688Z,97391.38
2019-03-08T15:15:26.323Z,97397.20
2019-03-08T15:17:53.657Z,97399.06
2019-03-08T15:20:21.612Z,97405.39
2019-03-08T15:22:48.747Z,97418.00
2019-03-08T15:25:15.566Z,97422.63
2019-03-08T15:27:42.308Z,97418.48
2019-03-08T15:30:11.292Z,97414.11
2019-03-08T15:32:37.929Z,97419.70
2019-03-08T15:35:05.740Z,97428.75
2019-03-08T15:37:32.642Z,97428.88
2019-03-08T15:39:59.162Z,97423.81
2019-03-08T15:42:36.276Z,97427.47
2019-03-08T15:45:05.840Z,97426.44
2019-03-08T15:47:32.689Z,97431.06
2019-03-08T15:50:04.560Z,97434.34
2019-03-08T15:52:29.715Z,97440.87
2019-03-08T15:54:56.261Z,97441.97
2019-03-08T15:57:22.918Z,97438.93
2019-03-08T15:59:49.463Z,97443.81
2019-03-08T16:02:16.224Z,97452.03
2019-03-08T16:04:45.799Z,97453.19
2019-03-08T16:07:11.707Z,97462.47
2019-03-08T16:09:38.391Z,97470.10
2019-03-08T16:12:05.017Z,97471.80
2019-03-08T16:14:31.731Z,97488.22
2019-03-08T16:16:58.378Z,97504.33
2019-03-08T16:19:26.183Z,97512.87
2019-03-08T16:21:52.952Z,97513.77
2019-03-08T16:24:19.682Z,97531.97
2019-03-08T16:26:46.323Z,97527.63
2019-03-08T16:29:12.982Z,97524.41
2019-03-08T16:31:45.750Z,97519.24
2019-03-08T16:34:12.890Z,97530.08
2019-03-08T16:36:47.272Z,97529.27
2019-03-08T16:39:19.436Z,97531.42
2019-03-08T16:42:04.546Z,97532.73
2019-03-08T16:45:05.903Z,97541.39
2019-03-08T16:47:50.797Z,97541.05
2019-03-08T16:50:31.336Z,97548.06
2019-03-08T16:53:05.224Z,97552.58
2019-03-08T16:55:39.435Z,97557.09
2019-03-08T16:58:31.678Z,97560.28
2019-03-08T17:01:20.662Z,97571.06
2019-03-08T17:03:56.187Z,97568.05
2019-03-08T17:06:54.491Z,97574.52
2019-03-08T17:09:30.682Z,97578.73
2019-03-08T17:12:05.149Z,97579.77
2019-03-08T17:14:43.904Z,97585.11
2019-03-08T17:17:21.530Z,97585.11
2019-03-08T17:19:56.837Z,97586.98
2019-03-08T17:22:43.139Z,97599.11
2019-03-08T17:25:19.031Z,97590.98
2019-03-08T17:28:09.977Z,97596.36
2019-03-08T17:30:54.870Z,97593.66
2019-03-08T17:33:33.100Z,97603.92
2019-03-08T17:36:20.951Z,97606.88
2019-03-08T17:38:52.539Z,97614.97
2019-03-08T17:41:28.328Z,97618.66
2019-03-08T17:44:17.339Z,97633.72
2019-03-08T17:47:07.461Z,97639.56
2019-03-08T17:50:05.592Z,97631.85
2019-03-08T17:53:07.122Z,97633.30
2019-03-08T17:55:51.556Z,97633.13
2019-03-08T17:58:34.222Z,97645.38
2019-03-08T18:01:23.347Z,97642.47
2019-03-08T18:04:21.906Z,97654.31
2019-03-08T18:07:14.004Z,97646.40
2019-03-08T18:10:06.035Z,97654.70
2019-03-08T18:13:07.841Z,97659.69
2019-03-08T18:15:49.858Z,97656.62
2019-03-08T18:18:35.208Z,97661.89
2019-03-08T18:21:18.758Z,97662.42
2019-03-08T18:24:01.542Z,97664.01
2019-03-08T18:26:57.202Z,97663.68
2019-03-08T18:29:34.966Z,97671.19
2019-03-08T18:32:26.988Z,97673.03
2019-03-08T18:35:20.688Z,97684.87
2019-03-08T18:38:15.874Z,97688.61
2019-03-08T18:41:02.068Z,97677.45
2019-03-08T18:43:45.554Z,97685.98
2019-03-08T18:46:43.315Z,97687.15
2019-03-08T18:49:41.765Z,97685.80
2019-03-08T18:52:43.424Z,97686.33
2019-03-08T18:55:47.968Z,97698.10
2019-03-08T18:58:30.283Z,97695.84
2019-03-08T19:01:15.169Z,97705.23
2019-03-08T19:04:00.672Z,97709.56
2019-03-08T19:06:35.285Z,97711.61
2019-03-08T19:09:36.843Z,97711.51
2019-03-08T19:12:15.199Z,97708.42
2019-03-08T19:14:50.788Z,97712.84
2019-03-08T19:17:27.023Z,97725.69
2019-03-08T19:20:28.355Z,97729.67
2019-03-08T19:23:05.740Z,97720.49
2019-03-08T19:25:40.190Z,97712.02
2019-03-08T19:28:25.216Z,97715.72
2019-03-08T19:31:15.726Z,97718.88
2019-03-08T19:34:01.120Z,97727.89
2019-03-08T19:36:45.409Z,97737.75
2019-03-08T19:39:18.696Z,97744.84
2019-03-08T19:42:00.261Z,97753.78
2019-03-08T19:44:52.305Z,97753.78
2019-03-08T19:47:50.806Z,97749.94
2019-03-08T19:50:27.670Z,97726.24
2019-03-08T19:53:10.370Z,97757.98
2019-03-08T19:55:58.535Z,97757.41
2019-03-08T19:58:32.241Z,97762.84
2019-03-08T20:01:18.826Z,97761.67
2019-03-08T20:04:01.334Z,97764.95
2019-03-08T20:06:46.387Z,97763.02
2019-03-08T20:09:32.868Z,97765.30
2019-03-08T20:12:31.298Z,97773.89
2019-03-08T20:15:23.679Z,97767.17
2019-03-08T20:17:55.521Z,97769.80
2019-03-08T20:20:32.021Z,97778.98
2019-03-08T20:23:14.187Z,97778.25
2019-03-08T20:26:05.118Z,97780.88
2019-03-08T20:28:58.720Z,97784.45
2019-03-08T20:31:43.798Z,97775.84
2019-03-08T20:34:30.147Z,97775.09
2019-03-08T20:37:05.932Z,97779.77
2019-03-08T20:39:54.465Z,97783.16
2019-03-08T20:42:39.695Z,97783.25
2019-03-08T20:45:26.696Z,97781.20
2019-03-08T20:47:53.425Z,97765.24
2019-03-08T20:50:20.252Z,97764.54
2019-03-08T20:52:47.028Z,97760.16
2019-03-08T20:55:13.838Z,97754.69
2019-03-08T20:57:40.593Z,97751.76
2019-03-08T21:00:08.505Z,97753.16
2019-03-08T21:02:35.082Z,97752.10
2019-03-08T21:05:01.796Z,97756.57
2019-03-08T21:07:34.503Z,97754.58
2019-03-08T21:10:08.764Z,97752.22
2019-03-08T21:12:37.462Z,97757.47
2019-03-08T21:15:06.110Z,97764.12
2019-03-08T21:17:33.187Z,97755.33
2019-03-08T21:20:00.025Z,97762.52
2019-03-08T21:22:27.541Z,97756.45
2019-03-08T21:24:54.675Z,97758.23
2019-03-08T21:27:21.807Z,97753.69
2019-03-08T21:29:48.819Z,97750.42
2019-03-08T21:32:16.059Z,97753.61
2019-03-08T21:34:43.943Z,97752.84
2019-03-08T21:37:11.371Z,97751.38
2019-03-08T21:39:38.161Z,97748.45
2019-03-08T21:42:04.953Z,97745.48
2019-03-08T21:44:31.941Z,97754.83
2019-03-08T21:46:58.712Z,97757.06
2019-03-08T21:49:25.508Z,97760.68
2019-03-08T21:51:54.602Z,97755.30
2019-03-08T21:54:21.789Z,97753.93
2019-03-08T21:56:49.548Z,97758.28
2019-03-08T21:59:17.024Z,97754.13
2019-03-08T22:01:43.785Z,97750.92
2019-03-08T22:04:16.811Z,97754.72
2019-03-08T22:06:44.085Z,97760.09
2019-03-08T22:09:21.968Z,97759.69
2019-03-08T22:11:48.960Z,97757.93
2019-03-08T22:14:16.174Z,97763.02
2019-03-08T22:16:43.096Z,97757.11
2019-03-08T22:19:10.125Z,97754.42
2019-03-08T22:21:37.100Z,97749.77
2019-03-08T22:24:13.090Z,97742.33
2019-03-08T22:26:33.406Z,97743.97
2019-03-08T22:29:00.323Z,97745.13
2019-03-08T22:31:27.253Z,97750.28
2019-03-08T22:33:54.987Z,97749.33
2019-03-08T22:36:22.316Z,97744.19
2019-03-08T22:38:49.846Z,97736.16
2019-03-08T22:41:17.484Z,97738.33
2019-03-08T22:43:44.397Z,97742.37
2019-03-08T22:46:11.446Z,97740.20
2019-03-08T22:48:39.381Z,97747.01
2019-03-08T22:51:08.025Z,97736.82
2019-03-08T22:53:34.917Z,97730.96
2019-03-08T22:56:01.982Z,97733.76
2019-03-08T22:58:28.752Z,97730.70
2019-03-08T23:01:13.070Z,97730.16
2019-03-08T23:03:39.838Z,97730.98
2019-03-08T23:06:06.474Z,97734.49
2019-03-08T23:08:33.103Z,97732.92
2019-03-08T23:10:59.843Z,97735.67
2019-03-08T23:13:26.461Z,97734.42
2019-03-08T23:15:53.227Z,97721.25
2019-03-08T23:18:19.895Z,97719.38
2019-03-08T23:20:46.639Z,97726.30
2019-03-08T23:23:13.271Z,97718.45
2019-03-08T23:25:39.917Z,97715.95
2019-03-08T23:28:19.449Z,97719.88
2019-03-08T23:30:47.831Z,97715.39
2019-03-08T23:33:14.451Z,97716.00
2019-03-08T23:35:41.123Z,97714.23
2019-03-08T23:38:07.659Z,97713.02
2019-03-08T23:40:34.300Z,97704.55
2019-03-08T23:43:00.925Z,97698.52
2019-03-08T23:45:27.628Z,97706.00
2019-03-08T23:47:54.265Z,97702.62
2019-03-08T23:50:21.188Z,97710.63
2019-03-08T23:52:47.704Z,97718.88
2019-03-08T23:55:14.350Z,97720.55
2019-03-08T23:57:40.897Z,97715.81
